sensor_id;sensor_type;location;lat;lon;timestamp;pressure;altitude;pressure_sealevel;temperature;humidity
57562;BME280;43397;51.530;5.974;2023-02-10T00:01:39;103152.44;;;4.05;96.25
57562;BME280;43397;51.530;5.974;2023-02-10T00:04:05;103158.53;;;4.04;97.99
57562;BME280;43397;51.530;5.974;2023-02-10T00:06:31;103164.06;;;4.08;96.85
57562;BME280;43397;51.530;5.974;2023-02-10T00:08:58;103172.00;;;3.94;96.36
57562;BME280;43397;51.530;5.974;2023-02-10T00:11:27;103167.50;;;3.76;97.42
57562;BME280;43397;51.530;5.974;2023-02-10T00:13:53;103181.78;;;3.65;98.12
57562;BME280;43397;51.530;5.974;2023-02-10T00:16:18;103165.19;;;3.66;97.44
57562;BME280;43397;51.530;5.974;2023-02-10T00:18:44;103173.25;;;3.69;96.50
57562;BME280;43397;51.530;5.974;2023-02-10T00:21:12;103171.72;;;3.58;97.78
57562;BME280;43397;51.530;5.974;2023-02-10T00:23:38;103168.56;;;3.48;97.61
57562;BME280;43397;51.530;5.974;2023-02-10T00:26:04;103175.75;;;3.36;98.31
57562;BME280;43397;51.530;5.974;2023-02-10T00:28:33;103170.94;;;3.14;100.00
57562;BME280;43397;51.530;5.974;2023-02-10T00:30:59;103176.38;;;3.17;99.52
57562;BME280;43397;51.530;5.974;2023-02-10T00:33:25;103182.09;;;3.10;98.79
57562;BME280;43397;51.530;5.974;2023-02-10T00:35:50;103181.44;;;2.99;98.30
57562;BME280;43397;51.530;5.974;2023-02-10T00:38:16;103186.03;;;2.88;98.23
57562;BME280;43397;51.530;5.974;2023-02-10T00:40:42;103174.53;;;2.86;98.25
57562;BME280;43397;51.530;5.974;2023-02-10T00:43:08;103187.09;;;2.77;99.31
57562;BME280;43397;51.530;5.974;2023-02-10T00:45:35;103183.75;;;2.80;97.51
57562;BME280;43397;51.530;5.974;2023-02-10T00:48:01;103190.88;;;2.67;97.69
57562;BME280;43397;51.530;5.974;2023-02-10T00:50:26;103190.97;;;2.69;96.75
57562;BME280;43397;51.530;5.974;2023-02-10T00:52:52;103191.94;;;2.56;97.43
57562;BME280;43397;51.530;5.974;2023-02-10T00:55:17;103186.50;;;2.53;97.44
57562;BME280;43397;51.530;5.974;2023-02-10T00:57:43;103189.47;;;2.44;97.56
57562;BME280;43397;51.530;5.974;2023-02-10T01:00:10;103188.63;;;2.45;97.32
57562;BME280;43397;51.530;5.974;2023-02-10T01:02:37;103187.69;;;2.30;98.46
57562;BME280;43397;51.530;5.974;2023-02-10T01:05:03;103181.75;;;2.19;98.31
57562;BME280;43397;51.530;5.974;2023-02-10T01:07:29;103189.72;;;2.21;98.31
57562;BME280;43397;51.530;5.974;2023-02-10T01:09:55;103182.66;;;2.20;99.02
57562;BME280;43397;51.530;5.974;2023-02-10T01:12:20;103189.16;;;2.12;99.29
57562;BME280;43397;51.530;5.974;2023-02-10T01:14:46;103188.47;;;1.88;100.00
57562;BME280;43397;51.530;5.974;2023-02-10T01:17:12;103188.66;;;1.91;99.64
57562;BME280;43397;51.530;5.974;2023-02-10T01:19:39;103201.78;;;1.77;98.04
57562;BME280;43397;51.530;5.974;2023-02-10T01:22:05;103210.44;;;1.76;98.88
57562;BME280;43397;51.530;5.974;2023-02-10T01:24:30;103212.75;;;1.85;99.14
57562;BME280;43397;51.530;5.974;2023-02-10T01:26:56;103213.09;;;1.90;100.00
57562;BME280;43397;51.530;5.974;2023-02-10T01:29:22;103219.53;;;1.81;100.00
57562;BME280;43397;51.530;5.974;2023-02-10T01:31:48;103215.38;;;1.85;100.00
57562;BME280;43397;51.530;5.974;2023-02-10T01:34:14;103215.00;;;1.79;99.39
57562;BME280;43397;51.530;5.974;2023-02-10T01:36:41;103214.19;;;1.80;99.94
57562;BME280;43397;51.530;5.974;2023-02-10T01:39:07;103200.59;;;1.85;100.00
57562;BME280;43397;51.530;5.974;2023-02-10T01:41:32;103208.44;;;1.99;100.00
57562;BME280;43397;51.530;5.974;2023-02-10T01:44:00;103216.91;;;1.81;100.00
57562;BME280;43397;51.530;5.974;2023-02-10T01:46:28;103221.75;;;1.75;99.52
57562;BME280;43397;51.530;5.974;2023-02-10T01:48:55;103221.88;;;1.63;98.46
57562;BME280;43397;51.530;5.974;2023-02-10T01:51:27;103223.66;;;1.51;99.46
57562;BME280;43397;51.530;5.974;2023-02-10T01:53:57;103213.66;;;1.46;100.00
57562;BME280;43397;51.530;5.974;2023-02-10T01:56:23;103214.66;;;1.48;100.00
57562;BME280;43397;51.530;5.974;2023-02-10T01:58:49;103212.28;;;1.51;100.00
57562;BME280;43397;51.530;5.974;2023-02-10T02:01:16;103220.31;;;1.54;100.00
57562;BME280;43397;51.530;5.974;2023-02-10T02:03:42;103210.75;;;1.54;100.00
57562;BME280;43397;51.530;5.974;2023-02-10T02:06:08;103218.91;;;1.59;100.00
57562;BME280;43397;51.530;5.974;2023-02-10T02:08:34;103228.91;;;1.64;100.00
57562;BME280;43397;51.530;5.974;2023-02-10T02:11:10;103225.06;;;1.59;99.72
57562;BME280;43397;51.530;5.974;2023-02-10T02:13:47;103229.91;;;1.40;97.88
57562;BME280;43397;51.530;5.974;2023-02-10T02:16:22;103226.31;;;1.26;98.75
57562;BME280;43397;51.530;5.974;2023-02-10T02:18:55;103213.03;;;1.23;100.00
57562;BME280;43397;51.530;5.974;2023-02-10T02:21:46;103209.94;;;1.55;100.00
57562;BME280;43397;51.530;5.974;2023-02-10T02:24:41;103205.28;;;2.04;100.00
57562;BME280;43397;51.530;5.974;2023-02-10T02:27:25;103204.75;;;2.23;100.00
57562;BME280;43397;51.530;5.974;2023-02-10T02:30:20;103205.56;;;2.64;100.00
57562;BME280;43397;51.530;5.974;2023-02-10T02:32:54;103191.97;;;2.71;100.00
57562;BME280;43397;51.530;5.974;2023-02-10T02:35:26;103197.41;;;2.46;100.00
57562;BME280;43397;51.530;5.974;2023-02-10T02:37:54;103199.00;;;2.29;100.00
57562;BME280;43397;51.530;5.974;2023-02-10T02:40:20;103205.34;;;2.19;100.00
57562;BME280;43397;51.530;5.974;2023-02-10T02:42:46;103203.63;;;2.33;100.00
57562;BME280;43397;51.530;5.974;2023-02-10T02:45:16;103203.72;;;2.63;100.00
57562;BME280;43397;51.530;5.974;2023-02-10T02:47:52;103200.38;;;2.65;100.00
57562;BME280;43397;51.530;5.974;2023-02-10T02:50:26;103208.69;;;2.58;100.00
57562;BME280;43397;51.530;5.974;2023-02-10T02:53:04;103197.38;;;2.59;100.00
57562;BME280;43397;51.530;5.974;2023-02-10T02:55:43;103208.66;;;2.30;100.00
57562;BME280;43397;51.530;5.974;2023-02-10T02:58:18;103204.38;;;2.45;100.00
57562;BME280;43397;51.530;5.974;2023-02-10T03:00:46;103206.94;;;2.44;100.00
57562;BME280;43397;51.530;5.974;2023-02-10T03:03:14;103206.47;;;2.23;100.00
57562;BME280;43397;51.530;5.974;2023-02-10T03:05:42;103203.38;;;2.43;100.00
57562;BME280;43397;51.530;5.974;2023-02-10T03:08:07;103211.34;;;2.45;100.00
57562;BME280;43397;51.530;5.974;2023-02-10T03:10:33;103210.84;;;2.51;100.00
57562;BME280;43397;51.530;5.974;2023-02-10T03:13:00;103211.53;;;2.61;100.00
57562;BME280;43397;51.530;5.974;2023-02-10T03:15:25;103209.91;;;2.50;100.00
57562;BME280;43397;51.530;5.974;2023-02-10T03:17:51;103210.03;;;2.52;100.00
57562;BME280;43397;51.530;5.974;2023-02-10T03:20:17;103212.03;;;2.56;100.00
57562;BME280;43397;51.530;5.974;2023-02-10T03:22:44;103203.47;;;2.73;100.00
57562;BME280;43397;51.530;5.974;2023-02-10T03:25:10;103211.25;;;2.72;100.00
57562;BME280;43397;51.530;5.974;2023-02-10T03:27:36;103222.47;;;2.69;100.00
57562;BME280;43397;51.530;5.974;2023-02-10T03:30:02;103224.78;;;2.50;100.00
57562;BME280;43397;51.530;5.974;2023-02-10T03:32:28;103227.94;;;2.44;100.00
57562;BME280;43397;51.530;5.974;2023-02-10T03:34:54;103221.13;;;2.47;100.00
57562;BME280;43397;51.530;5.974;2023-02-10T03:37:20;103229.69;;;2.58;100.00
57562;BME280;43397;51.530;5.974;2023-02-10T03:39:47;103240.06;;;2.70;100.00
57562;BME280;43397;51.530;5.974;2023-02-10T03:42:13;103241.47;;;2.65;100.00
57562;BME280;43397;51.530;5.974;2023-02-10T03:44:38;103236.44;;;2.68;100.00
57562;BME280;43397;51.530;5.974;2023-02-10T03:47:04;103239.63;;;2.49;100.00
57562;BME280;43397;51.530;5.974;2023-02-10T03:49:30;103252.25;;;2.41;100.00
57562;BME280;43397;51.530;5.974;2023-02-10T03:51:56;103248.03;;;2.30;100.00
57562;BME280;43397;51.530;5.974;2023-02-10T03:54:22;103248.63;;;2.26;100.00
57562;BME280;43397;51.530;5.974;2023-02-10T03:56:49;103240.47;;;2.21;100.00
57562;BME280;43397;51.530;5.974;2023-02-10T03:59:14;103248.13;;;2.32;100.00
57562;BME280;43397;51.530;5.974;2023-02-10T04:01:40;103249.84;;;2.31;100.00
57562;BME280;43397;51.530;5.974;2023-02-10T04:04:06;103244.22;;;2.25;100.00
57562;BME280;43397;51.530;5.974;2023-02-10T04:06:31;103241.16;;;2.32;100.00
57562;BME280;43397;51.530;5.974;2023-02-10T04:08:57;103243.69;;;2.31;100.00
57562;BME280;43397;51.530;5.974;2023-02-10T04:11:23;103242.88;;;2.32;100.00
57562;BME280;43397;51.530;5.974;2023-02-10T04:13:50;103247.91;;;2.29;100.00
57562;BME280;43397;51.530;5.974;2023-02-10T04:16:16;103244.09;;;2.23;100.00
57562;BME280;43397;51.530;5.974;2023-02-10T04:18:42;103247.56;;;2.22;100.00
57562;BME280;43397;51.530;5.974;2023-02-10T04:21:10;103250.97;;;2.21;100.00
57562;BME280;43397;51.530;5.974;2023-02-10T04:23:36;103246.63;;;2.22;100.00
57562;BME280;43397;51.530;5.974;2023-02-10T04:26:02;103247.03;;;2.28;100.00
57562;BME280;43397;51.530;5.974;2023-02-10T04:28:29;103233.31;;;2.19;100.00
57562;BME280;43397;51.530;5.974;2023-02-10T04:30:58;103236.69;;;2.03;100.00
57562;BME280;43397;51.530;5.974;2023-02-10T04:33:24;103239.91;;;1.99;100.00
57562;BME280;43397;51.530;5.974;2023-02-10T04:35:51;103235.13;;;2.06;100.00
57562;BME280;43397;51.530;5.974;2023-02-10T04:38:17;103233.03;;;2.14;100.00
57562;BME280;43397;51.530;5.974;2023-02-10T04:40:43;103237.09;;;2.09;100.00
57562;BME280;43397;51.530;5.974;2023-02-10T04:43:09;103235.50;;;2.26;100.00
57562;BME280;43397;51.530;5.974;2023-02-10T04:45:35;103243.00;;;2.20;100.00
57562;BME280;43397;51.530;5.974;2023-02-10T04:48:03;103236.28;;;1.97;100.00
57562;BME280;43397;51.530;5.974;2023-02-10T04:50:28;103231.22;;;1.87;100.00
57562;BME280;43397;51.530;5.974;2023-02-10T04:52:54;103238.50;;;1.77;100.00
57562;BME280;43397;51.530;5.974;2023-02-10T04:55:20;103245.16;;;1.85;100.00
57562;BME280;43397;51.530;5.974;2023-02-10T04:57:46;103243.63;;;1.89;100.00
57562;BME280;43397;51.530;5.974;2023-02-10T05:00:13;103241.09;;;2.04;100.00
57562;BME280;43397;51.530;5.974;2023-02-10T05:02:39;103239.31;;;2.03;100.00
57562;BME280;43397;51.530;5.974;2023-02-10T05:05:06;103239.31;;;1.90;100.00
57562;BME280;43397;51.530;5.974;2023-02-10T05:07:32;103247.75;;;2.25;100.00
57562;BME280;43397;51.530;5.974;2023-02-10T05:09:58;103249.38;;;2.10;100.00
57562;BME280;43397;51.530;5.974;2023-02-10T05:12:23;103253.13;;;2.14;100.00
57562;BME280;43397;51.530;5.974;2023-02-10T05:14:49;103256.50;;;2.26;100.00
57562;BME280;43397;51.530;5.974;2023-02-10T05:17:15;103258.06;;;2.22;100.00
57562;BME280;43397;51.530;5.974;2023-02-10T05:19:40;103259.38;;;2.16;100.00
57562;BME280;43397;51.530;5.974;2023-02-10T05:22:07;103265.19;;;1.85;100.00
57562;BME280;43397;51.530;5.974;2023-02-10T05:24:33;103268.34;;;1.79;100.00
57562;BME280;43397;51.530;5.974;2023-02-10T05:26:59;103274.00;;;1.72;100.00
57562;BME280;43397;51.530;5.974;2023-02-10T05:29:25;103279.72;;;1.67;100.00
57562;BME280;43397;51.530;5.974;2023-02-10T05:31:50;103271.00;;;1.41;100.00
57562;BME280;43397;51.530;5.974;2023-02-10T05:34:16;103270.69;;;1.36;100.00
57562;BME280;43397;51.530;5.974;2023-02-10T05:36:42;103266.31;;;1.23;100.00
57562;BME280;43397;51.530;5.974;2023-02-10T05:39:09;103273.13;;;1.33;100.00
57562;BME280;43397;51.530;5.974;2023-02-10T05:41:34;103268.59;;;1.44;100.00
57562;BME280;43397;51.530;5.974;2023-02-10T05:44:00;103264.28;;;1.19;100.00
57562;BME280;43397;51.530;5.974;2023-02-10T05:46:26;103267.50;;;1.67;100.00
57562;BME280;43397;51.530;5.974;2023-02-10T05:48:52;103272.38;;;1.88;100.00
57562;BME280;43397;51.530;5.974;2023-02-10T05:51:17;103263.81;;;2.03;100.00
57562;BME280;43397;51.530;5.974;2023-02-10T05:53:43;103271.28;;;1.84;100.00
57562;BME280;43397;51.530;5.974;2023-02-10T05:56:10;103272.34;;;1.61;100.00
57562;BME280;43397;51.530;5.974;2023-02-10T05:58:36;103274.06;;;1.87;100.00
57562;BME280;43397;51.530;5.974;2023-02-10T06:01:05;103281.03;;;1.87;100.00
57562;BME280;43397;51.530;5.974;2023-02-10T06:03:31;103281.25;;;2.30;100.00
57562;BME280;43397;51.530;5.974;2023-02-10T06:05:56;103280.94;;;2.25;100.00
57562;BME280;43397;51.530;5.974;2023-02-10T06:08:23;103279.72;;;2.20;100.00
57562;BME280;43397;51.530;5.974;2023-02-10T06:10:48;103279.53;;;2.30;100.00
57562;BME280;43397;51.530;5.974;2023-02-10T06:13:15;103276.69;;;2.40;100.00
57562;BME280;43397;51.530;5.974;2023-02-10T06:15:42;103281.84;;;2.25;100.00
57562;BME280;43397;51.530;5.974;2023-02-10T06:18:07;103283.94;;;2.44;100.00
57562;BME280;43397;51.530;5.974;2023-02-10T06:20:33;103282.22;;;2.45;100.00
57562;BME280;43397;51.530;5.974;2023-02-10T06:22:59;103280.03;;;2.38;100.00
57562;BME280;43397;51.530;5.974;2023-02-10T06:25:24;103278.78;;;2.46;100.00
57562;BME280;43397;51.530;5.974;2023-02-10T06:27:50;103271.16;;;2.36;100.00
57562;BME280;43397;51.530;5.974;2023-02-10T06:30:17;103276.56;;;2.52;100.00
57562;BME280;43397;51.530;5.974;2023-02-10T06:32:43;103275.91;;;2.70;100.00
57562;BME280;43397;51.530;5.974;2023-02-10T06:35:09;103272.59;;;2.59;100.00
57562;BME280;43397;51.530;5.974;2023-02-10T06:37:35;103280.50;;;2.87;100.00
57562;BME280;43397;51.530;5.974;2023-02-10T06:40:01;103281.81;;;2.80;100.00
57562;BME280;43397;51.530;5.974;2023-02-10T06:42:26;103283.03;;;2.85;100.00
57562;BME280;43397;51.530;5.974;2023-02-10T06:44:52;103276.81;;;2.98;100.00
57562;BME280;43397;51.530;5.974;2023-02-10T06:47:20;103266.84;;;2.93;100.00
57562;BME280;43397;51.530;5.974;2023-02-10T06:49:46;103267.75;;;2.93;100.00
57562;BME280;43397;51.530;5.974;2023-02-10T06:52:11;103275.91;;;2.98;100.00
57562;BME280;43397;51.530;5.974;2023-02-10T06:54:37;103281.78;;;2.94;100.00
57562;BME280;43397;51.530;5.974;2023-02-10T06:57:03;103281.19;;;3.13;100.00
57562;BME280;43397;51.530;5.974;2023-02-10T06:59:28;103284.16;;;3.04;100.00
57562;BME280;43397;51.530;5.974;2023-02-10T07:01:54;103280.22;;;2.82;100.00
57562;BME280;43397;51.530;5.974;2023-02-10T07:04:21;103278.75;;;3.01;100.00
57562;BME280;43397;51.530;5.974;2023-02-10T07:06:47;103274.50;;;3.18;100.00
57562;BME280;43397;51.530;5.974;2023-02-10T07:09:13;103283.06;;;3.00;100.00
57562;BME280;43397;51.530;5.974;2023-02-10T07:11:38;103285.00;;;3.18;100.00
57562;BME280;43397;51.530;5.974;2023-02-10T07:14:04;103289.00;;;3.26;100.00
57562;BME280;43397;51.530;5.974;2023-02-10T07:16:30;103287.88;;;3.36;100.00
57562;BME280;43397;51.530;5.974;2023-02-10T07:18:55;103289.47;;;3.19;100.00
57562;BME280;43397;51.530;5.974;2023-02-10T07:21:22;103291.41;;;3.36;100.00
57562;BME280;43397;51.530;5.974;2023-02-10T07:23:48;103291.38;;;3.21;100.00
57562;BME280;43397;51.530;5.974;2023-02-10T07:26:14;103296.84;;;3.54;100.00
57562;BME280;43397;51.530;5.974;2023-02-10T07:28:40;103299.16;;;3.20;100.00
57562;BME280;43397;51.530;5.974;2023-02-10T07:31:06;103303.59;;;3.64;100.00
57562;BME280;43397;51.530;5.974;2023-02-10T07:33:32;103298.69;;;3.55;100.00
57562;BME280;43397;51.530;5.974;2023-02-10T07:35:59;103306.06;;;3.33;100.00
57562;BME280;43397;51.530;5.974;2023-02-10T07:38:26;103306.16;;;3.34;100.00
57562;BME280;43397;51.530;5.974;2023-02-10T07:40:52;103322.13;;;3.52;100.00
57562;BME280;43397;51.530;5.974;2023-02-10T07:43:18;103326.47;;;3.37;100.00
57562;BME280;43397;51.530;5.974;2023-02-10T07:45:44;103332.28;;;3.46;100.00
57562;BME280;43397;51.530;5.974;2023-02-10T07:48:09;103325.97;;;3.14;100.00
57562;BME280;43397;51.530;5.974;2023-02-10T07:50:35;103317.47;;;3.18;100.00
57562;BME280;43397;51.530;5.974;2023-02-10T07:53:01;103316.34;;;3.43;100.00
57562;BME280;43397;51.530;5.974;2023-02-10T07:55:28;103321.69;;;3.44;100.00
57562;BME280;43397;51.530;5.974;2023-02-10T07:57:53;103323.56;;;3.32;100.00
57562;BME280;43397;51.530;5.974;2023-02-10T08:00:19;103329.94;;;3.65;100.00
57562;BME280;43397;51.530;5.974;2023-02-10T08:02:45;103335.41;;;3.25;100.00
57562;BME280;43397;51.530;5.974;2023-02-10T08:05:11;103326.69;;;3.40;100.00
57562;BME280;43397;51.530;5.974;2023-02-10T08:07:37;103333.84;;;3.72;100.00
57562;BME280;43397;51.530;5.974;2023-02-10T08:10:04;103326.28;;;3.34;100.00
57562;BME280;43397;51.530;5.974;2023-02-10T08:12:31;103326.75;;;3.41;100.00
57562;BME280;43397;51.530;5.974;2023-02-10T08:14:56;103328.97;;;3.48;100.00
57562;BME280;43397;51.530;5.974;2023-02-10T08:17:22;103334.56;;;3.55;100.00
57562;BME280;43397;51.530;5.974;2023-02-10T08:19:48;103332.31;;;4.05;100.00
57562;BME280;43397;51.530;5.974;2023-02-10T08:22:13;103334.31;;;3.95;100.00
57562;BME280;43397;51.530;5.974;2023-02-10T08:24:39;103329.78;;;3.92;100.00
57562;BME280;43397;51.530;5.974;2023-02-10T08:27:05;103346.13;;;4.01;100.00
57562;BME280;43397;51.530;5.974;2023-02-10T08:29:33;103342.94;;;3.92;100.00
57562;BME280;43397;51.530;5.974;2023-02-10T08:31:58;103349.53;;;4.00;100.00
57562;BME280;43397;51.530;5.974;2023-02-10T08:34:24;103357.63;;;4.18;100.00
57562;BME280;43397;51.530;5.974;2023-02-10T08:36:50;103354.34;;;4.68;100.00
57562;BME280;43397;51.530;5.974;2023-02-10T08:39:15;103349.06;;;4.37;100.00
57562;BME280;43397;51.530;5.974;2023-02-10T08:41:42;103357.22;;;4.42;100.00
57562;BME280;43397;51.530;5.974;2023-02-10T08:44:09;103350.81;;;4.22;100.00
57562;BME280;43397;51.530;5.974;2023-02-10T08:46:36;103361.19;;;4.81;100.00
57562;BME280;43397;51.530;5.974;2023-02-10T08:49:02;103352.97;;;4.75;100.00
57562;BME280;43397;51.530;5.974;2023-02-10T08:51:28;103361.41;;;4.38;100.00
57562;BME280;43397;51.530;5.974;2023-02-10T08:53:54;103363.97;;;4.68;100.00
57562;BME280;43397;51.530;5.974;2023-02-10T08:56:20;103366.94;;;4.74;100.00
57562;BME280;43397;51.530;5.974;2023-02-10T08:58:46;103371.06;;;4.69;100.00
57562;BME280;43397;51.530;5.974;2023-02-10T09:01:14;103362.50;;;4.73;100.00
57562;BME280;43397;51.530;5.974;2023-02-10T09:03:41;103372.13;;;4.72;100.00
57562;BME280;43397;51.530;5.974;2023-02-10T09:06:12;103371.53;;;4.93;100.00
57562;BME280;43397;51.530;5.974;2023-02-10T09:08:38;103373.69;;;4.69;100.00
57562;BME280;43397;51.530;5.974;2023-02-10T09:11:04;103350.19;;;4.57;100.00
57562;BME280;43397;51.530;5.974;2023-02-10T09:13:30;103340.75;;;4.61;100.00
57562;BME280;43397;51.530;5.974;2023-02-10T09:15:56;103348.84;;;4.80;100.00
57562;BME280;43397;51.530;5.974;2023-02-10T09:18:22;103347.72;;;5.24;100.00
57562;BME280;43397;51.530;5.974;2023-02-10T09:20:49;103347.84;;;5.42;100.00
57562;BME280;43397;51.530;5.974;2023-02-10T09:23:15;103344.13;;;5.39;100.00
57562;BME280;43397;51.530;5.974;2023-02-10T09:25:41;103340.81;;;5.26;100.00
57562;BME280;43397;51.530;5.974;2023-02-10T09:28:06;103347.88;;;5.44;100.00
57562;BME280;43397;51.530;5.974;2023-02-10T09:30:32;103344.25;;;5.58;100.00
57562;BME280;43397;51.530;5.974;2023-02-10T09:32:58;103346.28;;;5.64;100.00
57562;BME280;43397;51.530;5.974;2023-02-10T09:35:23;103346.06;;;5.59;100.00
57562;BME280;43397;51.530;5.974;2023-02-10T09:37:50;103347.94;;;5.78;100.00
57562;BME280;43397;51.530;5.974;2023-02-10T09:40:17;103351.94;;;5.88;100.00
57562;BME280;43397;51.530;5.974;2023-02-10T09:43:01;103341.28;;;5.52;100.00
57562;BME280;43397;51.530;5.974;2023-02-10T09:45:31;103345.97;;;6.08;100.00
57562;BME280;43397;51.530;5.974;2023-02-10T09:48:00;103350.19;;;6.23;100.00
57562;BME280;43397;51.530;5.974;2023-02-10T09:50:39;103348.50;;;6.23;100.00
57562;BME280;43397;51.530;5.974;2023-02-10T09:53:15;103348.56;;;6.43;100.00
57562;BME280;43397;51.530;5.974;2023-02-10T09:55:45;103353.28;;;6.68;100.00
57562;BME280;43397;51.530;5.974;2023-02-10T09:58:19;103352.91;;;6.78;100.00
57562;BME280;43397;51.530;5.974;2023-02-10T10:00:48;103351.66;;;6.89;100.00
57562;BME280;43397;51.530;5.974;2023-02-10T10:03:18;103357.16;;;6.94;100.00
57562;BME280;43397;51.530;5.974;2023-02-10T10:05:52;103364.09;;;7.29;100.00
57562;BME280;43397;51.530;5.974;2023-02-10T10:08:27;103367.44;;;7.25;100.00
57562;BME280;43397;51.530;5.974;2023-02-10T10:11:00;103355.00;;;6.85;100.00
57562;BME280;43397;51.530;5.974;2023-02-10T10:13:29;103357.59;;;7.03;100.00
57562;BME280;43397;51.530;5.974;2023-02-10T10:16:14;103360.91;;;7.17;100.00
57562;BME280;43397;51.530;5.974;2023-02-10T10:18:50;103352.28;;;8.23;100.00
57562;BME280;43397;51.530;5.974;2023-02-10T10:21:23;103346.28;;;7.85;100.00
57562;BME280;43397;51.530;5.974;2023-02-10T10:24:02;103354.63;;;7.54;100.00
57562;BME280;43397;51.530;5.974;2023-02-10T10:26:42;103360.47;;;7.47;100.00
57562;BME280;43397;51.530;5.974;2023-02-10T10:29:19;103367.41;;;7.64;100.00
57562;BME280;43397;51.530;5.974;2023-02-10T10:31:46;103352.16;;;7.99;100.00
57562;BME280;43397;51.530;5.974;2023-02-10T10:34:16;103353.13;;;7.80;100.00
57562;BME280;43397;51.530;5.974;2023-02-10T10:36:44;103356.69;;;8.22;100.00
57562;BME280;43397;51.530;5.974;2023-02-10T10:39:15;103344.50;;;8.47;100.00
57562;BME280;43397;51.530;5.974;2023-02-10T10:41:46;103346.09;;;9.11;100.00
57562;BME280;43397;51.530;5.974;2023-02-10T10:44:15;103342.34;;;8.82;96.47
57562;BME280;43397;51.530;5.974;2023-02-10T10:46:46;103347.06;;;8.68;95.78
57562;BME280;43397;51.530;5.974;2023-02-10T10:49:13;103351.66;;;9.19;94.97
57562;BME280;43397;51.530;5.974;2023-02-10T10:51:38;103351.47;;;8.90;95.68
57562;BME280;43397;51.530;5.974;2023-02-10T10:54:06;103346.81;;;8.62;97.64
57562;BME280;43397;51.530;5.974;2023-02-10T10:56:38;103362.34;;;8.74;94.27
57562;BME280;43397;51.530;5.974;2023-02-10T10:59:12;103358.91;;;9.47;92.23
57562;BME280;43397;51.530;5.974;2023-02-10T11:01:40;103355.91;;;9.14;92.02
57562;BME280;43397;51.530;5.974;2023-02-10T11:04:10;103356.72;;;9.35;90.82
57562;BME280;43397;51.530;5.974;2023-02-10T11:06:36;103343.69;;;9.17;94.66
57562;BME280;43397;51.530;5.974;2023-02-10T11:09:05;103342.69;;;8.91;92.04
57562;BME280;43397;51.530;5.974;2023-02-10T11:11:34;103333.44;;;9.04;90.68
57562;BME280;43397;51.530;5.974;2023-02-10T11:14:01;103326.53;;;8.85;90.94
57562;BME280;43397;51.530;5.974;2023-02-10T11:16:27;103330.44;;;9.67;91.59
57562;BME280;43397;51.530;5.974;2023-02-10T11:18:55;103329.50;;;10.18;87.10
57562;BME280;43397;51.530;5.974;2023-02-10T11:21:32;103333.50;;;9.79;88.30
57562;BME280;43397;51.530;5.974;2023-02-10T11:23:58;103330.97;;;9.33;88.30
57562;BME280;43397;51.530;5.974;2023-02-10T11:26:25;103324.03;;;9.60;86.26
57562;BME280;43397;51.530;5.974;2023-02-10T11:28:52;103322.94;;;9.31;87.80
57562;BME280;43397;51.530;5.974;2023-02-10T11:31:25;103317.47;;;9.51;88.66
57562;BME280;43397;51.530;5.974;2023-02-10T11:33:56;103309.16;;;9.91;87.63
57562;BME280;43397;51.530;5.974;2023-02-10T11:36:30;103311.66;;;9.37;86.93
57562;BME280;43397;51.530;5.974;2023-02-10T11:39:00;103311.13;;;10.24;86.51
57562;BME280;43397;51.530;5.974;2023-02-10T11:41:29;103309.09;;;9.89;84.34
57562;BME280;43397;51.530;5.974;2023-02-10T11:43:56;103316.00;;;10.12;85.75
57562;BME280;43397;51.530;5.974;2023-02-10T11:46:23;103311.44;;;10.62;82.28
57562;BME280;43397;51.530;5.974;2023-02-10T11:48:54;103311.41;;;10.60;81.35
57562;BME280;43397;51.530;5.974;2023-02-10T11:51:20;103305.31;;;10.64;80.50
57562;BME280;43397;51.530;5.974;2023-02-10T11:53:47;103292.84;;;10.62;80.92
57562;BME280;43397;51.530;5.974;2023-02-10T11:56:18;103294.88;;;11.01;80.08
57562;BME280;43397;51.530;5.974;2023-02-10T11:58:52;103286.13;;;10.75;80.34
57562;BME280;43397;51.530;5.974;2023-02-10T12:01:32;103280.31;;;10.88;78.55
57562;BME280;43397;51.530;5.974;2023-02-10T12:04:01;103275.06;;;10.89;74.49
57562;BME280;43397;51.530;5.974;2023-02-10T12:06:33;103275.56;;;10.76;77.26
57562;BME280;43397;51.530;5.974;2023-02-10T12:09:05;103266.63;;;11.06;76.84
57562;BME280;43397;51.530;5.974;2023-02-10T12:11:40;103272.56;;;11.59;72.40
57562;BME280;43397;51.530;5.974;2023-02-10T12:14:28;103258.59;;;11.35;71.53
57562;BME280;43397;51.530;5.974;2023-02-10T12:17:04;103271.44;;;11.51;70.15
57562;BME280;43397;51.530;5.974;2023-02-10T12:19:38;103268.06;;;11.58;72.13
57562;BME280;43397;51.530;5.974;2023-02-10T12:22:12;103254.41;;;11.44;70.58
57562;BME280;43397;51.530;5.974;2023-02-10T12:24:54;103257.81;;;12.08;69.59
57562;BME280;43397;51.530;5.974;2023-02-10T12:27:27;103245.41;;;11.39;69.55
57562;BME280;43397;51.530;5.974;2023-02-10T12:30:02;103249.66;;;12.01;68.35
57562;BME280;43397;51.530;5.974;2023-02-10T12:32:39;103252.47;;;11.73;68.26
57562;BME280;43397;51.530;5.974;2023-02-10T12:35:25;103243.34;;;11.97;69.88
57562;BME280;43397;51.530;5.974;2023-02-10T12:38:02;103239.91;;;12.39;67.91
57562;BME280;43397;51.530;5.974;2023-02-10T12:40:42;103247.44;;;12.59;70.14
57562;BME280;43397;51.530;5.974;2023-02-10T12:43:29;103247.81;;;12.77;65.45
57562;BME280;43397;51.530;5.974;2023-02-10T12:46:03;103252.53;;;13.34;64.91
57562;BME280;43397;51.530;5.974;2023-02-10T12:48:36;103243.28;;;12.73;64.11
57562;BME280;43397;51.530;5.974;2023-02-10T12:51:24;103233.91;;;12.11;67.24
57562;BME280;43397;51.530;5.974;2023-02-10T12:53:57;103242.47;;;11.63;71.17
57562;BME280;43397;51.530;5.974;2023-02-10T12:56:26;103243.59;;;12.08;70.69
57562;BME280;43397;51.530;5.974;2023-02-10T12:59:00;103235.69;;;11.76;69.49